Freedom of the Seas — C6UZ7 — position and weather

sailwx.info

Track history (hours):
 
Tides and Currents Weather Stations Pressure Air Temp Water Temp Dewpoint Dewpoint Depression Visibility Wind Speed Wind Dir Waves Ship Positions

Freedom of the Seas

Last reported at 2019-Feb-23 22:17 UTC. Time now 2019-Feb-23 22:53 UTC.
Position N 18°00' W 063°04'.

Length 510 m; draft 7.8 m.

Type: Ship (hazmat cat B). MMSI: 309906000.

Date/timePositionNaut miles runAvg speedWind from/ knotsBaromVisibWave heightAir tempDewpointWater temp
2019-Feb-23 22:17N 18°00' W 063°04'1 4.4
2019-Feb-23 22:00N 18°01' W 063°03'0 0.1
2019-Feb-23 20:52N 18°01' W 063°03'0 0.0
2019-Feb-23 15:58N 18°01' W 063°03'0 0.0
2019-Feb-23 15:16N 18°01' W 063°03'0 0.0
2019-Feb-23 14:28N 18°01' W 063°03'0 0.1
2019-Feb-23 11:35N 18°01' W 063°03'1 5.1
2019-Feb-23 11:27N 18°00' W 063°04'3 7.0
2019-Feb-23 11:00N 17°58' W 063°06'1110.6
2019-Feb-23 09:57N 17°47' W 063°06'510.3
2019-Feb-23 09:29N 17°42' W 063°05'510.5
2019-Feb-23 08:59N 17°37' W 063°05'710.4
2019-Feb-23 08:17N 17°30' W 063°05'4 9.6
2019-Feb-23 07:55N 17°26' W 063°05'1710.0
2019-Feb-23 06:16N 17°12' W 062°56'710.3
2019-Feb-23 05:36N 17°06' W 062°53'110.3
2019-Feb-23 05:29N 17°05' W 062°52'17410.2
2019-Feb-22 12:21N 14°33' W 061°23'310.2
2019-Feb-22 12:00N 14°30' W 061°21'12 9.8
2019-Feb-22 10:45N 14°21' W 061°12'310.1
2019-Feb-22 10:25N 14°19' W 061°09'410.2
2019-Feb-22 10:00N 14°17' W 061°06'510.9
2019-Feb-22 09:30N 14°15' W 061°00'510.9
2019-Feb-22 09:00N 14°13' W 060°55'611.0
2019-Feb-22 08:30N 14°10' W 060°50'610.6
2019-Feb-22 07:59N 14°06' W 060°46'18 0.4
2019-Feb-20 11:08N 14°06' W 061°05'512.3
2019-Feb-20 10:42N 14°10' W 061°09'312.9
2019-Feb-20 10:26N 14°12' W 061°11'613.3
2019-Feb-20 09:59N 14°17' W 061°15'1213.7
2019-Feb-20 09:06N 14°27' W 061°22'214.3
2019-Feb-20 08:57N 14°29' W 061°22'1113.9
2019-Feb-20 08:11N 14°39' W 061°26'713.3
2019-Feb-20 07:40N 14°45' W 061°30'132 5.1
2019-Feb-19 05:49N 16°43' W 062°30'23 6.8
2019-Feb-19 02:30N 16°55' W 062°50'9 4.9
2019-Feb-19 00:36N 17°04' W 062°52'16 1.2
2019-Feb-18 11:40N 17°20' W 062°56'2021.1
2019-Feb-18 10:42N 17°36' W 063°08'521.3
2019-Feb-18 10:29N 17°40' W 063°11'1020.8
2019-Feb-18 09:59N 17°45' W 063°20'1120.9
2019-Feb-18 09:28N 17°50' W 063°31'7920.2
2019-Feb-18 05:35N 18°11' W 064°50'317.3
2019-Feb-18 05:25N 18°12' W 064°53'2 0.1
2019-Feb-17 03:26N 18°13' W 064°55'917.0
2019-Feb-17 02:55N 18°11' W 064°46'8417.1
2019-Feb-16 22:02N 18°02' W 063°19'117.8
2019-Feb-16 21:58N 18°01' W 063°18'1117.4
2019-Feb-16 21:22N 18°00' W 063°07'3 9.2
2019-Feb-16 21:00N 18°00' W 063°03'1 0.5
2019-Feb-16 20:03N 18°01' W 063°03'0 0.0
2019-Feb-16 19:45N 18°01' W 063°03'0 0.0
2019-Feb-16 18:51N 18°01' W 063°03'0 0.0
2019-Feb-16 18:06N 18°01' W 063°03'0 0.0
2019-Feb-16 17:36N 18°01' W 063°03'0 0.0
2019-Feb-16 17:09N 18°01' W 063°03'0 0.0
2019-Feb-16 15:39N 18°01' W 063°03'0 0.0
2019-Feb-16 14:21N 18°01' W 063°03'0 0.0
2019-Feb-16 12:39N 18°01' W 063°03'1 0.6
2019-Feb-16 11:31N 18°00' W 063°03'4 9.5
2019-Feb-16 11:06N 17°59' W 063°07'210.9
2019-Feb-16 10:57N 17°58' W 063°09'711.2
2019-Feb-16 10:18N 17°55' W 063°16'411.3
2019-Feb-16 09:58N 17°54' W 063°19'511.3
2019-Feb-16 09:30N 17°51' W 063°24'  
Track history (hours):
 
Tides and Currents Weather Stations Pressure Air Temp Water Temp Dewpoint Dewpoint Depression Visibility Wind Speed Wind Dir Waves Ship Positions

Freedom of the Seas

Last reported at 2019-Feb-23 22:17 UTC. Time now 2019-Feb-23 22:53 UTC.
Position N 18°00' W 063°04'.

Length 510 m; draft 7.8 m.

Type: Ship (hazmat cat B). MMSI: 309906000.

Date/timePositionNaut miles runAvg speedWind from/ knotsBaromVisibWave heightAir tempDewpointWater temp
2019-Feb-23 22:17N 18°00' W 063°04'1 4.4
2019-Feb-23 22:00N 18°01' W 063°03'0 0.1
2019-Feb-23 20:52N 18°01' W 063°03'0 0.0
2019-Feb-23 15:58N 18°01' W 063°03'0 0.0
2019-Feb-23 15:16N 18°01' W 063°03'0 0.0
2019-Feb-23 14:28N 18°01' W 063°03'0 0.1
2019-Feb-23 11:35N 18°01' W 063°03'1 5.1
2019-Feb-23 11:27N 18°00' W 063°04'3 7.0
2019-Feb-23 11:00N 17°58' W 063°06'1110.6
2019-Feb-23 09:57N 17°47' W 063°06'510.3
2019-Feb-23 09:29N 17°42' W 063°05'510.5
2019-Feb-23 08:59N 17°37' W 063°05'710.4
2019-Feb-23 08:17N 17°30' W 063°05'4 9.6
2019-Feb-23 07:55N 17°26' W 063°05'1710.0
2019-Feb-23 06:16N 17°12' W 062°56'710.3
2019-Feb-23 05:36N 17°06' W 062°53'110.3
2019-Feb-23 05:29N 17°05' W 062°52'17410.2
2019-Feb-22 12:21N 14°33' W 061°23'310.2
2019-Feb-22 12:00N 14°30' W 061°21'12 9.8
2019-Feb-22 10:45N 14°21' W 061°12'310.1
2019-Feb-22 10:25N 14°19' W 061°09'410.2
2019-Feb-22 10:00N 14°17' W 061°06'510.9
2019-Feb-22 09:30N 14°15' W 061°00'510.9
2019-Feb-22 09:00N 14°13' W 060°55'611.0
2019-Feb-22 08:30N 14°10' W 060°50'610.6
2019-Feb-22 07:59N 14°06' W 060°46'18 0.4
2019-Feb-20 11:08N 14°06' W 061°05'512.3
2019-Feb-20 10:42N 14°10' W 061°09'312.9
2019-Feb-20 10:26N 14°12' W 061°11'613.3
2019-Feb-20 09:59N 14°17' W 061°15'1213.7
2019-Feb-20 09:06N 14°27' W 061°22'214.3
2019-Feb-20 08:57N 14°29' W 061°22'1113.9
2019-Feb-20 08:11N 14°39' W 061°26'713.3
2019-Feb-20 07:40N 14°45' W 061°30'132 5.1
2019-Feb-19 05:49N 16°43' W 062°30'23 6.8
2019-Feb-19 02:30N 16°55' W 062°50'9 4.9
2019-Feb-19 00:36N 17°04' W 062°52'16 1.2
2019-Feb-18 11:40N 17°20' W 062°56'2021.1
2019-Feb-18 10:42N 17°36' W 063°08'521.3
2019-Feb-18 10:29N 17°40' W 063°11'1020.8
2019-Feb-18 09:59N 17°45' W 063°20'1120.9
2019-Feb-18 09:28N 17°50' W 063°31'7920.2
2019-Feb-18 05:35N 18°11' W 064°50'317.3
2019-Feb-18 05:25N 18°12' W 064°53'2 0.1
2019-Feb-17 03:26N 18°13' W 064°55'917.0
2019-Feb-17 02:55N 18°11' W 064°46'8417.1
2019-Feb-16 22:02N 18°02' W 063°19'117.8
2019-Feb-16 21:58N 18°01' W 063°18'1117.4
2019-Feb-16 21:22N 18°00' W 063°07'3 9.2
2019-Feb-16 21:00N 18°00' W 063°03'1 0.5
2019-Feb-16 20:03N 18°01' W 063°03'0 0.0
2019-Feb-16 19:45N 18°01' W 063°03'0 0.0
2019-Feb-16 18:51N 18°01' W 063°03'0 0.0
2019-Feb-16 18:06N 18°01' W 063°03'0 0.0
2019-Feb-16 17:36N 18°01' W 063°03'0 0.0
2019-Feb-16 17:09N 18°01' W 063°03'0 0.0
2019-Feb-16 15:39N 18°01' W 063°03'0 0.0
2019-Feb-16 14:21N 18°01' W 063°03'0 0.0
2019-Feb-16 12:39N 18°01' W 063°03'1 0.6
2019-Feb-16 11:31N 18°00' W 063°03'4 9.5
2019-Feb-16 11:06N 17°59' W 063°07'210.9
2019-Feb-16 10:57N 17°58' W 063°09'711.2
2019-Feb-16 10:18N 17°55' W 063°16'411.3
2019-Feb-16 09:58N 17°54' W 063°19'511.3
2019-Feb-16 09:30N 17°51' W 063°24'  

Dump ship's entire track history